sensor_id;sensor_type;location;lat;lon;timestamp;temperature;humidity
48579;DHT22;34357;51.948;6.132;2022-11-20T00:00:46;-2.80;86.70
48579;DHT22;34357;51.948;6.132;2022-11-20T00:03:12;-2.80;86.80
48579;DHT22;34357;51.948;6.132;2022-11-20T00:05:38;-2.80;86.90
48579;DHT22;34357;51.948;6.132;2022-11-20T00:08:04;-2.80;86.80
48579;DHT22;34357;51.948;6.132;2022-11-20T00:10:30;-2.80;86.80
48579;DHT22;34357;51.948;6.132;2022-11-20T00:12:58;-2.80;86.90
48579;DHT22;34357;51.948;6.132;2022-11-20T00:15:24;-2.90;86.80
48579;DHT22;34357;51.948;6.132;2022-11-20T00:17:50;-3.00;87.00
48579;DHT22;34357;51.948;6.132;2022-11-20T00:20:16;-3.00;87.10
48579;DHT22;34357;51.948;6.132;2022-11-20T00:22:41;-3.00;87.20
48579;DHT22;34357;51.948;6.132;2022-11-20T00:25:07;-3.00;87.30
48579;DHT22;34357;51.948;6.132;2022-11-20T00:27:33;-3.00;87.20
48579;DHT22;34357;51.948;6.132;2022-11-20T00:29:58;-3.00;87.20
48579;DHT22;34357;51.948;6.132;2022-11-20T00:32:24;-3.00;87.30
48579;DHT22;34357;51.948;6.132;2022-11-20T00:34:50;-3.10;87.10
48579;DHT22;34357;51.948;6.132;2022-11-20T00:37:15;-3.10;87.20
48579;DHT22;34357;51.948;6.132;2022-11-20T00:39:41;-3.10;87.10
48579;DHT22;34357;51.948;6.132;2022-11-20T00:42:07;-3.10;87.00
48579;DHT22;34357;51.948;6.132;2022-11-20T00:44:32;-3.10;87.10
48579;DHT22;34357;51.948;6.132;2022-11-20T00:46:58;-3.20;87.10
48579;DHT22;34357;51.948;6.132;2022-11-20T00:49:24;-3.20;87.10
48579;DHT22;34357;51.948;6.132;2022-11-20T00:51:49;-3.20;87.20
48579;DHT22;34357;51.948;6.132;2022-11-20T00:54:15;-3.20;87.30
48579;DHT22;34357;51.948;6.132;2022-11-20T00:56:41;-3.30;87.20
48579;DHT22;34357;51.948;6.132;2022-11-20T00:59:08;-3.20;87.30
48579;DHT22;34357;51.948;6.132;2022-11-20T01:01:34;-3.30;87.10
48579;DHT22;34357;51.948;6.132;2022-11-20T01:04:01;-3.30;87.20
48579;DHT22;34357;51.948;6.132;2022-11-20T01:06:35;-3.30;87.30
48579;DHT22;34357;51.948;6.132;2022-11-20T01:09:08;-3.20;87.60
48579;DHT22;34357;51.948;6.132;2022-11-20T01:11:36;-3.30;87.60
48579;DHT22;34357;51.948;6.132;2022-11-20T01:14:04;-3.30;87.70
48579;DHT22;34357;51.948;6.132;2022-11-20T01:16:38;-3.30;87.80
48579;DHT22;34357;51.948;6.132;2022-11-20T01:19:06;-3.30;87.60
48579;DHT22;34357;51.948;6.132;2022-11-20T01:21:34;-3.30;87.50
48579;DHT22;34357;51.948;6.132;2022-11-20T01:24:01;-3.30;87.40
48579;DHT22;34357;51.948;6.132;2022-11-20T01:26:30;-3.40;87.20
48579;DHT22;34357;51.948;6.132;2022-11-20T01:28:56;-3.40;87.40
48579;DHT22;34357;51.948;6.132;2022-11-20T01:31:40;-3.40;87.70
48579;DHT22;34357;51.948;6.132;2022-11-20T01:34:09;-3.40;87.60
48579;DHT22;34357;51.948;6.132;2022-11-20T01:36:37;-3.50;87.60
48579;DHT22;34357;51.948;6.132;2022-11-20T01:39:15;-3.50;87.80
48579;DHT22;34357;51.948;6.132;2022-11-20T01:41:42;-3.40;87.90
48579;DHT22;34357;51.948;6.132;2022-11-20T01:44:49;-3.50;87.70
48579;DHT22;34357;51.948;6.132;2022-11-20T01:47:43;-3.50;87.80
48579;DHT22;34357;51.948;6.132;2022-11-20T01:50:24;-3.50;87.60
48579;DHT22;34357;51.948;6.132;2022-11-20T01:52:59;-3.50;87.60
48579;DHT22;34357;51.948;6.132;2022-11-20T01:55:29;-3.50;87.80
48579;DHT22;34357;51.948;6.132;2022-11-20T01:57:56;-3.50;87.90
48579;DHT22;34357;51.948;6.132;2022-11-20T02:00:23;-3.40;88.00
48579;DHT22;34357;51.948;6.132;2022-11-20T02:02:54;-3.50;87.90
48579;DHT22;34357;51.948;6.132;2022-11-20T02:05:32;-3.50;87.90
48579;DHT22;34357;51.948;6.132;2022-11-20T02:07:59;-3.50;87.80
48579;DHT22;34357;51.948;6.132;2022-11-20T02:10:27;-3.50;87.80
48579;DHT22;34357;51.948;6.132;2022-11-20T02:12:53;-3.50;87.80
48579;DHT22;34357;51.948;6.132;2022-11-20T02:15:38;-3.50;87.80
48579;DHT22;34357;51.948;6.132;2022-11-20T02:18:05;-3.50;87.90
48579;DHT22;34357;51.948;6.132;2022-11-20T02:20:32;-3.50;87.90
48579;DHT22;34357;51.948;6.132;2022-11-20T02:23:12;-3.50;87.90
48579;DHT22;34357;51.948;6.132;2022-11-20T02:25:38;-3.50;87.80
48579;DHT22;34357;51.948;6.132;2022-11-20T02:28:05;-3.50;87.90
48579;DHT22;34357;51.948;6.132;2022-11-20T02:30:31;-3.50;87.90
48579;DHT22;34357;51.948;6.132;2022-11-20T02:32:57;-3.60;87.90
48579;DHT22;34357;51.948;6.132;2022-11-20T02:37:52;-3.60;87.90
48579;DHT22;34357;51.948;6.132;2022-11-20T02:40:18;-3.60;87.80
48579;DHT22;34357;51.948;6.132;2022-11-20T02:42:44;-3.60;87.50
48579;DHT22;34357;51.948;6.132;2022-11-20T02:45:10;-3.60;87.80
48579;DHT22;34357;51.948;6.132;2022-11-20T02:47:36;-3.60;88.10
48579;DHT22;34357;51.948;6.132;2022-11-20T02:50:02;-3.70;88.10
48579;DHT22;34357;51.948;6.132;2022-11-20T02:52:28;-3.70;88.30
48579;DHT22;34357;51.948;6.132;2022-11-20T02:54:54;-3.80;88.30
48579;DHT22;34357;51.948;6.132;2022-11-20T02:57:20;-3.80;88.30
48579;DHT22;34357;51.948;6.132;2022-11-20T02:59:45;-3.80;88.40
48579;DHT22;34357;51.948;6.132;2022-11-20T03:02:11;-3.80;88.40
48579;DHT22;34357;51.948;6.132;2022-11-20T03:04:37;-3.80;88.50
48579;DHT22;34357;51.948;6.132;2022-11-20T03:07:03;-3.80;88.50
48579;DHT22;34357;51.948;6.132;2022-11-20T03:09:28;-3.80;88.50
48579;DHT22;34357;51.948;6.132;2022-11-20T03:11:54;-3.90;88.40
48579;DHT22;34357;51.948;6.132;2022-11-20T03:14:20;-3.90;88.10
48579;DHT22;34357;51.948;6.132;2022-11-20T03:16:45;-3.90;88.30
48579;DHT22;34357;51.948;6.132;2022-11-20T03:19:11;-3.90;88.20
48579;DHT22;34357;51.948;6.132;2022-11-20T03:21:37;-4.00;88.10
48579;DHT22;34357;51.948;6.132;2022-11-20T03:24:03;-4.00;88.20
48579;DHT22;34357;51.948;6.132;2022-11-20T03:26:29;-3.90;88.20
48579;DHT22;34357;51.948;6.132;2022-11-20T03:29:00;-4.00;88.30
48579;DHT22;34357;51.948;6.132;2022-11-20T03:31:29;-4.00;88.40
48579;DHT22;34357;51.948;6.132;2022-11-20T03:33:56;-4.00;88.40
48579;DHT22;34357;51.948;6.132;2022-11-20T03:36:22;-4.00;88.40
48579;DHT22;34357;51.948;6.132;2022-11-20T03:38:48;-4.10;88.30
48579;DHT22;34357;51.948;6.132;2022-11-20T03:41:18;-4.00;88.30
48579;DHT22;34357;51.948;6.132;2022-11-20T03:43:51;-4.10;88.30
48579;DHT22;34357;51.948;6.132;2022-11-20T03:46:17;-4.10;88.40
48579;DHT22;34357;51.948;6.132;2022-11-20T03:48:43;-4.10;88.40
48579;DHT22;34357;51.948;6.132;2022-11-20T03:51:14;-4.10;88.40
48579;DHT22;34357;51.948;6.132;2022-11-20T03:53:41;-4.10;88.40
48579;DHT22;34357;51.948;6.132;2022-11-20T03:56:09;-4.10;88.60
48579;DHT22;34357;51.948;6.132;2022-11-20T03:58:37;-4.10;88.50
48579;DHT22;34357;51.948;6.132;2022-11-20T04:01:13;-4.10;88.50
48579;DHT22;34357;51.948;6.132;2022-11-20T04:03:40;-4.20;88.50
48579;DHT22;34357;51.948;6.132;2022-11-20T04:06:21;-4.20;88.60
48579;DHT22;34357;51.948;6.132;2022-11-20T04:08:47;-4.20;88.70
48579;DHT22;34357;51.948;6.132;2022-11-20T04:13:52;-4.20;88.70
48579;DHT22;34357;51.948;6.132;2022-11-20T04:16:19;-4.20;88.80
48579;DHT22;34357;51.948;6.132;2022-11-20T04:18:44;-4.20;88.60
48579;DHT22;34357;51.948;6.132;2022-11-20T04:21:11;-4.30;88.50
48579;DHT22;34357;51.948;6.132;2022-11-20T04:23:37;-4.30;88.40
48579;DHT22;34357;51.948;6.132;2022-11-20T04:26:09;-4.30;88.40
48579;DHT22;34357;51.948;6.132;2022-11-20T04:28:35;-4.30;88.40
48579;DHT22;34357;51.948;6.132;2022-11-20T04:31:13;-4.30;88.40
48579;DHT22;34357;51.948;6.132;2022-11-20T04:33:40;-4.30;88.30
48579;DHT22;34357;51.948;6.132;2022-11-20T04:36:07;-4.40;88.40
48579;DHT22;34357;51.948;6.132;2022-11-20T04:38:33;-4.40;88.40
48579;DHT22;34357;51.948;6.132;2022-11-20T04:41:01;-4.40;88.40
48579;DHT22;34357;51.948;6.132;2022-11-20T04:43:27;-4.40;88.30
48579;DHT22;34357;51.948;6.132;2022-11-20T04:45:54;-4.40;88.30
48579;DHT22;34357;51.948;6.132;2022-11-20T04:48:20;-4.40;88.20
48579;DHT22;34357;51.948;6.132;2022-11-20T04:50:46;-4.40;88.10
48579;DHT22;34357;51.948;6.132;2022-11-20T04:53:12;-4.50;88.10
48579;DHT22;34357;51.948;6.132;2022-11-20T04:55:37;-4.50;88.20
48579;DHT22;34357;51.948;6.132;2022-11-20T04:58:03;-4.50;88.20
48579;DHT22;34357;51.948;6.132;2022-11-20T05:00:29;-4.40;88.20
48579;DHT22;34357;51.948;6.132;2022-11-20T05:02:54;-4.40;88.40
48579;DHT22;34357;51.948;6.132;2022-11-20T05:05:20;-4.50;88.40
48579;DHT22;34357;51.948;6.132;2022-11-20T05:07:46;-4.40;88.40
48579;DHT22;34357;51.948;6.132;2022-11-20T05:10:11;-4.50;88.60
48579;DHT22;34357;51.948;6.132;2022-11-20T05:12:37;-4.50;88.60
48579;DHT22;34357;51.948;6.132;2022-11-20T05:15:03;-4.50;88.70
48579;DHT22;34357;51.948;6.132;2022-11-20T05:17:29;-4.50;88.70
48579;DHT22;34357;51.948;6.132;2022-11-20T05:19:54;-4.50;88.60
48579;DHT22;34357;51.948;6.132;2022-11-20T05:22:20;-4.50;88.60
48579;DHT22;34357;51.948;6.132;2022-11-20T05:24:46;-4.60;88.50
48579;DHT22;34357;51.948;6.132;2022-11-20T05:27:11;-4.60;88.50
48579;DHT22;34357;51.948;6.132;2022-11-20T05:29:37;-4.60;88.40
48579;DHT22;34357;51.948;6.132;2022-11-20T05:32:03;-4.60;88.50
48579;DHT22;34357;51.948;6.132;2022-11-20T05:34:29;-4.60;88.40
48579;DHT22;34357;51.948;6.132;2022-11-20T05:36:54;-4.70;88.30
48579;DHT22;34357;51.948;6.132;2022-11-20T05:39:20;-4.70;88.40
48579;DHT22;34357;51.948;6.132;2022-11-20T05:41:45;-4.70;88.30
48579;DHT22;34357;51.948;6.132;2022-11-20T05:44:11;-4.70;88.30
48579;DHT22;34357;51.948;6.132;2022-11-20T05:46:37;-4.70;88.20
48579;DHT22;34357;51.948;6.132;2022-11-20T05:49:04;-4.70;88.30
48579;DHT22;34357;51.948;6.132;2022-11-20T05:51:29;-4.70;88.20
48579;DHT22;34357;51.948;6.132;2022-11-20T05:53:58;-4.80;88.10
48579;DHT22;34357;51.948;6.132;2022-11-20T05:56:24;-4.70;88.20
48579;DHT22;34357;51.948;6.132;2022-11-20T05:58:49;-4.80;88.20
48579;DHT22;34357;51.948;6.132;2022-11-20T06:01:23;-4.80;88.20
48579;DHT22;34357;51.948;6.132;2022-11-20T06:03:49;-4.80;88.30
48579;DHT22;34357;51.948;6.132;2022-11-20T06:06:17;-4.80;88.30
48579;DHT22;34357;51.948;6.132;2022-11-20T06:08:43;-4.80;88.20
48579;DHT22;34357;51.948;6.132;2022-11-20T06:11:10;-4.80;88.20
48579;DHT22;34357;51.948;6.132;2022-11-20T06:13:37;-4.80;88.20
48579;DHT22;34357;51.948;6.132;2022-11-20T06:16:03;-4.90;88.10
48579;DHT22;34357;51.948;6.132;2022-11-20T06:18:29;-4.90;88.30
48579;DHT22;34357;51.948;6.132;2022-11-20T06:21:10;-4.90;88.30
48579;DHT22;34357;51.948;6.132;2022-11-20T06:23:36;-4.90;88.40
48579;DHT22;34357;51.948;6.132;2022-11-20T06:26:07;-4.90;88.40
48579;DHT22;34357;51.948;6.132;2022-11-20T06:28:33;-4.90;88.30
48579;DHT22;34357;51.948;6.132;2022-11-20T06:30:59;-4.90;88.10
48579;DHT22;34357;51.948;6.132;2022-11-20T06:33:25;-4.90;88.20
48579;DHT22;34357;51.948;6.132;2022-11-20T06:35:51;-4.90;88.30
48579;DHT22;34357;51.948;6.132;2022-11-20T06:38:16;-4.90;88.20
48579;DHT22;34357;51.948;6.132;2022-11-20T06:40:43;-4.90;88.30
48579;DHT22;34357;51.948;6.132;2022-11-20T06:43:11;-4.90;88.20
48579;DHT22;34357;51.948;6.132;2022-11-20T06:45:37;-5.00;88.30
48579;DHT22;34357;51.948;6.132;2022-11-20T06:48:03;-4.90;88.40
48579;DHT22;34357;51.948;6.132;2022-11-20T06:50:29;-4.90;88.30
48579;DHT22;34357;51.948;6.132;2022-11-20T06:52:55;-5.00;88.20
48579;DHT22;34357;51.948;6.132;2022-11-20T06:55:21;-5.00;88.20
48579;DHT22;34357;51.948;6.132;2022-11-20T06:57:46;-5.00;88.20
48579;DHT22;34357;51.948;6.132;2022-11-20T07:00:13;-4.90;88.30
48579;DHT22;34357;51.948;6.132;2022-11-20T07:02:38;-4.90;88.20
48579;DHT22;34357;51.948;6.132;2022-11-20T07:05:04;-4.90;88.20
48579;DHT22;34357;51.948;6.132;2022-11-20T07:07:30;-4.90;88.30
48579;DHT22;34357;51.948;6.132;2022-11-20T07:09:56;-4.90;88.40
48579;DHT22;34357;51.948;6.132;2022-11-20T07:12:21;-4.80;88.50
48579;DHT22;34357;51.948;6.132;2022-11-20T07:14:47;-4.80;88.30
48579;DHT22;34357;51.948;6.132;2022-11-20T07:17:13;-4.80;88.30
48579;DHT22;34357;51.948;6.132;2022-11-20T07:19:38;-4.80;88.30
48579;DHT22;34357;51.948;6.132;2022-11-20T07:22:04;-4.80;88.30
48579;DHT22;34357;51.948;6.132;2022-11-20T07:24:30;-4.80;88.30
48579;DHT22;34357;51.948;6.132;2022-11-20T07:26:55;-4.80;88.30
48579;DHT22;34357;51.948;6.132;2022-11-20T07:29:21;-4.80;88.20
48579;DHT22;34357;51.948;6.132;2022-11-20T07:31:47;-4.80;88.10
48579;DHT22;34357;51.948;6.132;2022-11-20T07:34:12;-4.80;88.20
48579;DHT22;34357;51.948;6.132;2022-11-20T07:36:38;-4.80;88.30
48579;DHT22;34357;51.948;6.132;2022-11-20T07:39:04;-4.70;88.30
48579;DHT22;34357;51.948;6.132;2022-11-20T07:41:30;-4.70;88.30
48579;DHT22;34357;51.948;6.132;2022-11-20T07:43:56;-4.70;88.30
48579;DHT22;34357;51.948;6.132;2022-11-20T07:46:22;-4.60;88.40
48579;DHT22;34357;51.948;6.132;2022-11-20T07:48:47;-4.70;88.30
48579;DHT22;34357;51.948;6.132;2022-11-20T07:51:13;-4.60;88.40
48579;DHT22;34357;51.948;6.132;2022-11-20T07:53:39;-4.60;88.40
48579;DHT22;34357;51.948;6.132;2022-11-20T07:56:05;-4.50;88.40
48579;DHT22;34357;51.948;6.132;2022-11-20T07:58:31;-4.50;88.40
48579;DHT22;34357;51.948;6.132;2022-11-20T08:01:05;-4.50;88.50
48579;DHT22;34357;51.948;6.132;2022-11-20T08:03:31;-4.40;88.50
48579;DHT22;34357;51.948;6.132;2022-11-20T08:05:59;-4.30;88.50
48579;DHT22;34357;51.948;6.132;2022-11-20T08:08:26;-4.30;88.40
48579;DHT22;34357;51.948;6.132;2022-11-20T08:10:52;-4.10;88.50
48579;DHT22;34357;51.948;6.132;2022-11-20T08:13:18;-4.10;88.50
48579;DHT22;34357;51.948;6.132;2022-11-20T08:16:02;-4.00;88.60
48579;DHT22;34357;51.948;6.132;2022-11-20T08:18:27;-3.90;88.50
48579;DHT22;34357;51.948;6.132;2022-11-20T08:20:53;-3.80;88.60
48579;DHT22;34357;51.948;6.132;2022-11-20T08:23:19;-3.70;88.70
48579;DHT22;34357;51.948;6.132;2022-11-20T08:25:49;-3.60;88.70
48579;DHT22;34357;51.948;6.132;2022-11-20T08:28:15;-3.40;88.80
48579;DHT22;34357;51.948;6.132;2022-11-20T08:30:40;-3.10;88.80
48579;DHT22;34357;51.948;6.132;2022-11-20T08:33:08;-3.10;88.60
48579;DHT22;34357;51.948;6.132;2022-11-20T08:35:36;-3.00;88.20
48579;DHT22;34357;51.948;6.132;2022-11-20T08:38:03;-2.90;88.10
48579;DHT22;34357;51.948;6.132;2022-11-20T08:40:29;-2.90;88.00
48579;DHT22;34357;51.948;6.132;2022-11-20T08:42:54;-2.80;87.90
48579;DHT22;34357;51.948;6.132;2022-11-20T08:45:20;-2.80;88.00
48579;DHT22;34357;51.948;6.132;2022-11-20T08:47:46;-2.60;88.10
48579;DHT22;34357;51.948;6.132;2022-11-20T08:50:14;-2.40;88.10
48579;DHT22;34357;51.948;6.132;2022-11-20T08:52:39;-2.30;88.00
48579;DHT22;34357;51.948;6.132;2022-11-20T08:55:06;-2.10;87.80
48579;DHT22;34357;51.948;6.132;2022-11-20T08:57:32;-2.10;87.60
48579;DHT22;34357;51.948;6.132;2022-11-20T08:59:58;-2.00;87.60
48579;DHT22;34357;51.948;6.132;2022-11-20T09:02:24;-2.00;87.50
48579;DHT22;34357;51.948;6.132;2022-11-20T09:04:50;-2.10;87.50
48579;DHT22;34357;51.948;6.132;2022-11-20T09:07:16;-2.00;87.50
48579;DHT22;34357;51.948;6.132;2022-11-20T09:09:41;-2.00;87.60
48579;DHT22;34357;51.948;6.132;2022-11-20T09:12:07;-2.00;87.80
48579;DHT22;34357;51.948;6.132;2022-11-20T09:14:33;-2.00;88.00
48579;DHT22;34357;51.948;6.132;2022-11-20T09:17:00;-1.80;88.10
48579;DHT22;34357;51.948;6.132;2022-11-20T09:19:25;-1.60;88.10
48579;DHT22;34357;51.948;6.132;2022-11-20T09:21:51;-1.60;88.00
48579;DHT22;34357;51.948;6.132;2022-11-20T09:24:17;-1.40;88.10
48579;DHT22;34357;51.948;6.132;2022-11-20T09:26:43;-1.20;88.10
48579;DHT22;34357;51.948;6.132;2022-11-20T09:29:09;-1.00;87.60
48579;DHT22;34357;51.948;6.132;2022-11-20T09:31:35;-0.90;87.60
48579;DHT22;34357;51.948;6.132;2022-11-20T09:34:00;-0.80;87.30
48579;DHT22;34357;51.948;6.132;2022-11-20T09:36:26;-0.70;87.10
48579;DHT22;34357;51.948;6.132;2022-11-20T09:38:52;-0.60;86.90
48579;DHT22;34357;51.948;6.132;2022-11-20T09:47:08;-0.50;86.30
48579;DHT22;34357;51.948;6.132;2022-11-20T09:49:59;-0.40;86.60
48579;DHT22;34357;51.948;6.132;2022-11-20T09:55:38;-0.30;86.50
48579;DHT22;34357;51.948;6.132;2022-11-20T09:58:37;-0.30;86.50
48579;DHT22;34357;51.948;6.132;2022-11-20T10:01:12;-0.30;86.60
48579;DHT22;34357;51.948;6.132;2022-11-20T10:04:24;-0.30;86.80
48579;DHT22;34357;51.948;6.132;2022-11-20T10:09:38;-0.30;86.90
48579;DHT22;34357;51.948;6.132;2022-11-20T10:15:12;-0.30;87.30
48579;DHT22;34357;51.948;6.132;2022-11-20T10:24:05;0.00;87.70
48579;DHT22;34357;51.948;6.132;2022-11-20T10:29:18;0.00;87.70
48579;DHT22;34357;51.948;6.132;2022-11-20T10:31:48;0.10;87.50
48579;DHT22;34357;51.948;6.132;2022-11-20T10:36:52;0.20;87.20
48579;DHT22;34357;51.948;6.132;2022-11-20T10:41:52;0.40;87.10
48579;DHT22;34357;51.948;6.132;2022-11-20T10:44:21;0.40;86.90
48579;DHT22;34357;51.948;6.132;2022-11-20T10:47:16;0.40;87.10
48579;DHT22;34357;51.948;6.132;2022-11-20T10:49:44;0.50;86.90
48579;DHT22;34357;51.948;6.132;2022-11-20T10:55:18;0.70;87.20
48579;DHT22;34357;51.948;6.132;2022-11-20T11:00:20;0.80;86.90
48579;DHT22;34357;51.948;6.132;2022-11-20T11:02:53;0.80;86.80
48579;DHT22;34357;51.948;6.132;2022-11-20T11:08:00;0.90;86.50
48579;DHT22;34357;51.948;6.132;2022-11-20T11:13:23;0.90;86.70
48579;DHT22;34357;51.948;6.132;2022-11-20T11:15:49;0.90;86.90
48579;DHT22;34357;51.948;6.132;2022-11-20T11:18:26;1.00;87.00
48579;DHT22;34357;51.948;6.132;2022-11-20T11:20:54;0.90;87.00
48579;DHT22;34357;51.948;6.132;2022-11-20T11:26:05;0.90;87.20
48579;DHT22;34357;51.948;6.132;2022-11-20T11:28:32;1.00;87.20
48579;DHT22;34357;51.948;6.132;2022-11-20T11:30:58;1.00;87.20
48579;DHT22;34357;51.948;6.132;2022-11-20T11:33:29;1.10;86.90
48579;DHT22;34357;51.948;6.132;2022-11-20T11:35:57;1.10;87.00
48579;DHT22;34357;51.948;6.132;2022-11-20T11:38:38;1.10;87.20
48579;DHT22;34357;51.948;6.132;2022-11-20T11:41:14;1.20;87.30
48579;DHT22;34357;51.948;6.132;2022-11-20T11:43:51;1.20;87.40
48579;DHT22;34357;51.948;6.132;2022-11-20T11:46:36;1.30;87.50
48579;DHT22;34357;51.948;6.132;2022-11-20T11:51:41;1.50;86.90
48579;DHT22;34357;51.948;6.132;2022-11-20T11:54:20;1.50;87.00
48579;DHT22;34357;51.948;6.132;2022-11-20T11:56:48;1.50;87.20
48579;DHT22;34357;51.948;6.132;2022-11-20T11:59:26;1.60;87.20
48579;DHT22;34357;51.948;6.132;2022-11-20T12:01:59;1.60;87.30
48579;DHT22;34357;51.948;6.132;2022-11-20T12:07:03;1.60;86.90
48579;DHT22;34357;51.948;6.132;2022-11-20T12:09:41;1.60;86.90
48579;DHT22;34357;51.948;6.132;2022-11-20T12:12:15;1.60;87.00
48579;DHT22;34357;51.948;6.132;2022-11-20T12:14:44;1.60;87.00
48579;DHT22;34357;51.948;6.132;2022-11-20T12:17:13;1.60;87.30
48579;DHT22;34357;51.948;6.132;2022-11-20T12:19:39;1.60;87.30
48579;DHT22;34357;51.948;6.132;2022-11-20T12:25:16;1.60;87.90
48579;DHT22;34357;51.948;6.132;2022-11-20T12:30:24;1.60;87.90
48579;DHT22;34357;51.948;6.132;2022-11-20T12:47:30;1.50;89.20
48579;DHT22;34357;51.948;6.132;2022-11-20T12:50:14;1.40;89.30
48579;DHT22;34357;51.948;6.132;2022-11-20T12:53:11;1.50;89.40
48579;DHT22;34357;51.948;6.132;2022-11-20T12:55:52;1.60;89.90
48579;DHT22;34357;51.948;6.132;2022-11-20T12:58:27;1.60;89.60
48579;DHT22;34357;51.948;6.132;2022-11-20T13:01:25;1.60;89.70
48579;DHT22;34357;51.948;6.132;2022-11-20T13:06:46;1.70;89.30
48579;DHT22;34357;51.948;6.132;2022-11-20T13:09:15;1.70;89.50
48579;DHT22;34357;51.948;6.132;2022-11-20T13:15:21;1.70;89.80
48579;DHT22;34357;51.948;6.132;2022-11-20T13:17:50;1.80;89.80
48579;DHT22;34357;51.948;6.132;2022-11-20T13:20:18;1.80;89.80
48579;DHT22;34357;51.948;6.132;2022-11-20T13:22:53;1.80;89.80
48579;DHT22;34357;51.948;6.132;2022-11-20T13:27:54;1.80;90.00
48579;DHT22;34357;51.948;6.132;2022-11-20T13:30:22;1.80;90.00
48579;DHT22;34357;51.948;6.132;2022-11-20T13:35:27;1.90;90.00
48579;DHT22;34357;51.948;6.132;2022-11-20T13:40:26;1.90;90.10
48579;DHT22;34357;51.948;6.132;2022-11-20T13:43:37;1.90;90.30
48579;DHT22;34357;51.948;6.132;2022-11-20T13:46:06;1.90;90.20
48579;DHT22;34357;51.948;6.132;2022-11-20T13:48:40;2.00;90.30
48579;DHT22;34357;51.948;6.132;2022-11-20T13:54:41;1.90;90.60
48579;DHT22;34357;51.948;6.132;2022-11-20T14:00:19;1.80;91.10
48579;DHT22;34357;51.948;6.132;2022-11-20T14:03:09;1.80;91.30
48579;DHT22;34357;51.948;6.132;2022-11-20T14:05:40;1.80;91.40
48579;DHT22;34357;51.948;6.132;2022-11-20T14:13:39;1.90;91.70
48579;DHT22;34357;51.948;6.132;2022-11-20T14:16:20;1.90;91.80
48579;DHT22;34357;51.948;6.132;2022-11-20T14:18:45;2.00;91.90
48579;DHT22;34357;51.948;6.132;2022-11-20T14:21:11;2.10;92.00
48579;DHT22;34357;51.948;6.132;2022-11-20T14:23:37;2.10;92.00
48579;DHT22;34357;51.948;6.132;2022-11-20T14:26:04;2.10;92.00
48579;DHT22;34357;51.948;6.132;2022-11-20T14:28:31;2.00;92.00
48579;DHT22;34357;51.948;6.132;2022-11-20T14:30:57;2.10;92.10
48579;DHT22;34357;51.948;6.132;2022-11-20T14:33:27;2.00;92.00
48579;DHT22;34357;51.948;6.132;2022-11-20T14:35:55;2.10;92.20
48579;DHT22;34357;51.948;6.132;2022-11-20T14:38:25;2.10;92.20
48579;DHT22;34357;51.948;6.132;2022-11-20T14:40:51;2.10;92.30
48579;DHT22;34357;51.948;6.132;2022-11-20T14:43:28;2.10;92.30
48579;DHT22;34357;51.948;6.132;2022-11-20T14:46:03;2.20;92.30
48579;DHT22;34357;51.948;6.132;2022-11-20T14:48:43;2.10;92.30
48579;DHT22;34357;51.948;6.132;2022-11-20T14:51:11;2.10;92.30
48579;DHT22;34357;51.948;6.132;2022-11-20T14:53:37;2.20;92.40
48579;DHT22;34357;51.948;6.132;2022-11-20T14:56:03;2.20;92.40
48579;DHT22;34357;51.948;6.132;2022-11-20T14:58:31;2.20;92.40
48579;DHT22;34357;51.948;6.132;2022-11-20T15:01:11;2.20;92.50
48579;DHT22;34357;51.948;6.132;2022-11-20T15:03:40;2.10;92.50
48579;DHT22;34357;51.948;6.132;2022-11-20T15:06:07;2.10;92.50
48579;DHT22;34357;51.948;6.132;2022-11-20T15:08:35;2.20;92.70
48579;DHT22;34357;51.948;6.132;2022-11-20T15:11:01;2.10;92.60
48579;DHT22;34357;51.948;6.132;2022-11-20T15:13:36;2.10;92.70
48579;DHT22;34357;51.948;6.132;2022-11-20T15:16:08;2.20;92.80
48579;DHT22;34357;51.948;6.132;2022-11-20T15:18:42;2.20;92.80
48579;DHT22;34357;51.948;6.132;2022-11-20T15:21:13;2.10;92.80
48579;DHT22;34357;51.948;6.132;2022-11-20T15:23:39;2.10;92.90
48579;DHT22;34357;51.948;6.132;2022-11-20T15:26:06;2.20;93.00
48579;DHT22;34357;51.948;6.132;2022-11-20T15:28:35;2.20;93.10
48579;DHT22;34357;51.948;6.132;2022-11-20T15:31:03;2.20;93.10
48579;DHT22;34357;51.948;6.132;2022-11-20T15:33:31;2.20;93.10
48579;DHT22;34357;51.948;6.132;2022-11-20T15:35:57;2.20;93.20
48579;DHT22;34357;51.948;6.132;2022-11-20T15:38:22;2.20;93.20
48579;DHT22;34357;51.948;6.132;2022-11-20T15:40:48;2.30;93.30
48579;DHT22;34357;51.948;6.132;2022-11-20T15:43:14;2.30;93.30
48579;DHT22;34357;51.948;6.132;2022-11-20T15:45:45;2.30;93.30
48579;DHT22;34357;51.948;6.132;2022-11-20T15:53:29;2.30;93.30
48579;DHT22;34357;51.948;6.132;2022-11-20T15:55:55;2.30;93.30
48579;DHT22;34357;51.948;6.132;2022-11-20T15:58:21;2.30;93.30
48579;DHT22;34357;51.948;6.132;2022-11-20T16:00:48;2.20;93.30
48579;DHT22;34357;51.948;6.132;2022-11-20T16:03:15;2.30;93.30
48579;DHT22;34357;51.948;6.132;2022-11-20T16:05:42;2.30;93.40
48579;DHT22;34357;51.948;6.132;2022-11-20T16:08:08;2.30;93.50
48579;DHT22;34357;51.948;6.132;2022-11-20T16:10:34;2.30;93.50
48579;DHT22;34357;51.948;6.132;2022-11-20T16:12:59;2.40;93.50
48579;DHT22;34357;51.948;6.132;2022-11-20T16:15:51;2.30;93.50
48579;DHT22;34357;51.948;6.132;2022-11-20T16:18:19;2.40;93.50
48579;DHT22;34357;51.948;6.132;2022-11-20T16:20:48;2.40;93.50
48579;DHT22;34357;51.948;6.132;2022-11-20T16:23:14;2.40;93.50
48579;DHT22;34357;51.948;6.132;2022-11-20T16:25:42;2.40;93.50
48579;DHT22;34357;51.948;6.132;2022-11-20T16:28:07;2.40;93.50
48579;DHT22;34357;51.948;6.132;2022-11-20T16:30:33;2.40;93.50
48579;DHT22;34357;51.948;6.132;2022-11-20T16:33:00;2.40;93.60
48579;DHT22;34357;51.948;6.132;2022-11-20T16:35:27;2.40;93.60
48579;DHT22;34357;51.948;6.132;2022-11-20T16:37:54;2.40;93.60
48579;DHT22;34357;51.948;6.132;2022-11-20T16:40:20;2.30;93.60
48579;DHT22;34357;51.948;6.132;2022-11-20T16:42:46;2.30;93.60
48579;DHT22;34357;51.948;6.132;2022-11-20T16:45:12;2.30;93.70
48579;DHT22;34357;51.948;6.132;2022-11-20T16:47:38;2.30;93.70
48579;DHT22;34357;51.948;6.132;2022-11-20T16:50:05;2.30;93.70
48579;DHT22;34357;51.948;6.132;2022-11-20T16:52:31;2.30;93.80
48579;DHT22;34357;51.948;6.132;2022-11-20T16:54:57;2.30;93.80
48579;DHT22;34357;51.948;6.132;2022-11-20T16:57:23;2.40;93.90
48579;DHT22;34357;51.948;6.132;2022-11-20T16:59:48;2.30;93.80
48579;DHT22;34357;51.948;6.132;2022-11-20T17:02:15;2.40;93.90
48579;DHT22;34357;51.948;6.132;2022-11-20T17:04:41;2.30;93.90
48579;DHT22;34357;51.948;6.132;2022-11-20T17:07:07;2.30;93.90
48579;DHT22;34357;51.948;6.132;2022-11-20T17:09:33;2.30;93.90
48579;DHT22;34357;51.948;6.132;2022-11-20T17:11:59;2.40;94.00
48579;DHT22;34357;51.948;6.132;2022-11-20T17:14:25;2.30;93.90
48579;DHT22;34357;51.948;6.132;2022-11-20T17:16:50;2.30;93.90
48579;DHT22;34357;51.948;6.132;2022-11-20T17:19:16;2.30;94.10
48579;DHT22;34357;51.948;6.132;2022-11-20T17:21:41;2.30;94.00
48579;DHT22;34357;51.948;6.132;2022-11-20T17:24:10;2.30;94.10
48579;DHT22;34357;51.948;6.132;2022-11-20T17:26:37;2.40;94.10
48579;DHT22;34357;51.948;6.132;2022-11-20T17:29:05;2.40;94.20
48579;DHT22;34357;51.948;6.132;2022-11-20T17:31:32;2.40;94.20